createdAt,value
2018-02-26T01:56:45.403Z,1016.69
2018-02-26T01:57:18.354Z,1016.73
2018-02-26T01:58:18.371Z,1016.70
2018-02-26T01:59:18.318Z,1016.69
2018-02-26T02:00:18.332Z,1016.71
2018-02-26T02:01:18.271Z,1016.70
2018-02-26T02:02:18.260Z,1016.63
2018-02-26T02:03:18.225Z,1016.59
2018-02-26T02:04:18.282Z,1016.65
2018-02-26T02:05:18.544Z,1016.63
2018-02-26T02:06:18.232Z,1016.64
2018-02-26T02:07:18.153Z,1016.63
2018-02-26T02:08:18.120Z,1016.62
2018-02-26T02:09:18.131Z,1016.58
2018-02-26T02:10:18.077Z,1016.62
2018-02-26T02:11:18.060Z,1016.52
2018-02-26T02:12:18.043Z,1016.62
2018-02-26T02:13:18.014Z,1016.68
2018-02-26T02:14:18.007Z,1016.61
2018-02-26T02:15:17.980Z,1016.66
2018-02-26T02:16:18.651Z,1016.64
2018-02-26T02:17:17.936Z,1016.71
2018-02-26T02:18:17.912Z,1016.67
2018-02-26T02:19:17.879Z,1016.66
2018-02-26T02:20:17.902Z,1016.65
2018-02-26T02:21:17.909Z,1016.64
2018-02-26T02:22:17.826Z,1016.67
2018-02-26T02:23:17.806Z,1016.66
2018-02-26T02:24:17.839Z,1016.67
2018-02-26T02:25:17.757Z,1016.66
2018-02-26T02:26:17.743Z,1016.64
2018-02-26T02:27:17.772Z,1016.66
2018-02-26T02:28:17.699Z,1016.64
2018-02-26T02:29:17.678Z,1016.61
2018-02-26T02:30:17.654Z,1016.60
2018-02-26T02:31:17.662Z,1016.67
2018-02-26T02:32:17.599Z,1016.61
2018-02-26T02:33:17.609Z,1016.68
2018-02-26T02:34:17.578Z,1016.68
2018-02-26T02:35:17.542Z,1016.67
2018-02-26T02:36:17.519Z,1016.71
2018-02-26T02:37:17.515Z,1016.70
2018-02-26T02:38:17.546Z,1016.68
2018-02-26T02:39:17.445Z,1016.66
2018-02-26T02:40:17.431Z,1016.69
2018-02-26T02:41:17.409Z,1016.64
2018-02-26T02:42:17.392Z,1016.63
2018-02-26T02:43:17.481Z,1016.66
2018-02-26T02:44:17.391Z,1016.69
2018-02-26T02:45:17.327Z,1016.71
2018-02-26T02:46:17.359Z,1016.66
2018-02-26T02:47:17.291Z,1016.66
2018-02-26T02:48:17.304Z,1016.64
2018-02-26T02:49:17.243Z,1016.65
2018-02-26T03:01:14.165Z,1016.81
2018-02-26T03:02:13.728Z,1016.83
2018-02-26T03:03:13.747Z,1016.92
2018-02-26T03:04:13.716Z,1016.87
2018-02-26T03:05:13.680Z,1016.88
2018-02-26T03:06:13.635Z,1016.87
2018-02-26T03:07:13.626Z,1016.87
2018-02-26T03:08:13.593Z,1016.87
2018-02-26T03:09:13.636Z,1016.90
2018-02-26T03:10:13.561Z,1016.78
2018-02-26T03:11:13.539Z,1016.79
2018-02-26T03:12:14.134Z,1016.82
2018-02-26T03:13:13.496Z,1016.86
2018-02-26T03:14:13.484Z,1016.84
2018-02-26T03:15:13.460Z,1016.85
2018-02-26T03:58:02.854Z,1016.85
2018-02-26T03:58:35.758Z,1016.84
2018-02-26T04:09:58.901Z,1016.95
2018-02-26T04:10:58.878Z,1016.98
2018-02-26T04:11:58.915Z,1016.99
2018-02-26T04:12:58.841Z,1017.03
2018-02-26T04:13:58.813Z,1017.00
2018-02-26T04:14:58.823Z,1017.03
2018-02-26T04:15:58.767Z,1017.05
2018-02-26T04:16:58.741Z,1017.06
2018-02-26T04:17:58.765Z,1017.01
2018-02-26T04:18:58.706Z,1017.00
2018-02-26T06:13:26.825Z,1017.03
2018-02-26T06:13:59.740Z,1016.96
2018-02-26T06:14:59.694Z,1017.01
2018-02-26T06:15:59.708Z,1016.99
2018-02-26T06:16:59.641Z,1017.01
2018-02-26T06:17:59.634Z,1017.02
2018-02-26T06:18:59.953Z,1017.02
2018-02-26T06:19:59.612Z,1017.02
2018-02-26T06:20:59.600Z,1016.98
2018-02-26T06:21:59.648Z,1017.03
2018-02-26T06:22:59.574Z,1017.05
2018-02-26T06:23:59.537Z,1017.02
2018-02-26T06:24:59.679Z,1017.04
2018-02-26T06:25:59.467Z,1017.05
2018-02-26T06:26:59.719Z,1017.01
2018-02-26T06:27:59.564Z,1017.01
2018-02-26T06:28:59.447Z,1017.04
2018-02-26T06:29:59.435Z,1017.03
2018-02-26T06:30:59.984Z,1017.02
2018-02-26T06:31:59.357Z,1017.05
2018-02-26T06:32:59.365Z,1017.06
2018-02-26T06:33:59.299Z,1017.05
2018-02-26T06:34:59.289Z,1017.05
2018-02-26T06:35:59.374Z,1016.99
2018-02-26T06:36:59.341Z,1017.06
2018-02-26T06:37:59.279Z,1017.05
2018-02-26T06:38:59.321Z,1017.02
2018-02-26T06:39:59.163Z,1017.01
2018-02-26T06:40:59.134Z,1016.99
2018-02-26T06:41:59.121Z,1017.04
2018-02-26T06:42:59.156Z,1017.04
2018-02-26T06:43:59.130Z,1017.01
2018-02-26T06:44:59.113Z,1017.04
2018-02-26T06:45:59.094Z,1017.05
2018-02-26T06:46:59.070Z,1017.06
2018-02-26T06:47:58.984Z,1017.07
2018-02-26T06:48:58.953Z,1017.03
2018-02-26T06:49:58.945Z,1017.04
2018-02-26T06:50:58.984Z,1017.06
2018-02-26T06:51:58.981Z,1017.05
2018-02-26T06:52:58.869Z,1017.03
2018-02-26T06:53:58.859Z,1017.05
2018-02-26T06:54:58.913Z,1016.99
2018-02-26T06:55:59.414Z,1017.04
2018-02-26T06:56:58.791Z,1017.02
2018-02-26T06:57:58.824Z,1017.02
2018-02-26T06:58:58.810Z,1017.00
2018-02-26T06:59:58.768Z,1017.03
2018-02-26T07:00:58.711Z,1016.98
2018-02-26T07:01:58.720Z,1016.96
2018-02-26T07:02:58.713Z,1016.97
2018-02-26T07:03:58.635Z,1016.95
2018-02-26T07:04:58.683Z,1016.95
2018-02-26T07:05:58.651Z,1016.92
2018-02-26T07:06:58.640Z,1016.92
2018-02-26T07:07:58.547Z,1016.92
2018-02-26T07:08:58.583Z,1016.95
2018-02-26T07:09:58.514Z,1016.89
2018-02-26T07:10:58.525Z,1016.97
2018-02-26T07:11:58.527Z,1016.96
2018-02-26T07:12:58.555Z,1017.00
2018-02-26T07:13:58.455Z,1017.00
2018-02-26T07:14:58.543Z,1017.03
2018-02-26T07:15:58.432Z,1017.05
2018-02-26T07:16:58.383Z,1017.08
2018-02-26T07:17:58.373Z,1017.05
2018-02-26T07:18:58.346Z,1017.05
2018-02-26T07:19:58.295Z,1017.07
2018-02-26T07:20:58.260Z,1017.06
2018-02-26T07:21:58.259Z,1017.08
2018-02-26T07:22:58.314Z,1017.10
2018-02-26T07:23:58.196Z,1017.09
2018-02-26T07:25:09.940Z,1017.10
2018-02-26T07:25:58.238Z,1017.11
2018-02-26T07:26:58.163Z,1017.14
2018-02-26T07:27:58.234Z,1017.12
2018-02-26T07:28:58.133Z,1017.14
2018-02-26T07:29:58.069Z,1017.12
2018-02-26T07:30:58.055Z,1017.06
2018-02-26T07:31:58.037Z,1017.08
2018-02-26T07:32:58.014Z,1017.03
2018-02-26T07:33:57.989Z,1017.03
2018-02-26T07:34:57.980Z,1017.01
2018-02-26T07:35:57.991Z,1016.94
2018-02-26T07:36:57.937Z,1016.94
2018-02-26T07:37:57.955Z,1016.91
2018-02-26T07:38:57.936Z,1016.90
2018-02-26T07:39:57.876Z,1016.90
2018-02-26T07:40:57.844Z,1016.87
2018-02-26T07:41:58.379Z,1016.91
2018-02-26T07:42:57.775Z,1016.93
2018-02-26T07:43:57.784Z,1016.95
2018-02-26T07:44:57.777Z,1016.95
2018-02-26T07:45:57.725Z,1016.98
2018-02-26T07:46:57.723Z,1017.00
2018-02-26T07:47:57.746Z,1016.86
2018-02-26T07:48:57.663Z,1016.85
2018-02-26T07:49:57.718Z,1016.97
2018-02-26T07:50:57.622Z,1016.92
2018-02-26T07:51:57.586Z,1016.91
2018-02-26T07:52:57.575Z,1016.91
2018-02-26T07:53:57.558Z,1016.90
2018-02-26T07:54:58.314Z,1016.96
2018-02-26T07:55:57.504Z,1016.93
2018-02-26T07:56:57.488Z,1016.94
2018-02-26T07:57:57.477Z,1016.92
2018-02-26T07:58:57.472Z,1016.92
2018-02-26T07:59:57.443Z,1016.93
2018-02-26T08:00:58.033Z,1016.92
2018-02-26T08:01:57.454Z,1016.97
2018-02-26T08:02:58.065Z,1016.93
2018-02-26T08:03:57.340Z,1016.91
2018-02-26T08:04:58.011Z,1016.93
2018-02-26T08:05:57.410Z,1016.91
2018-02-26T08:06:57.275Z,1016.96
2018-02-26T08:07:57.344Z,1016.92
2018-02-26T08:08:57.217Z,1016.94
2018-02-26T08:09:57.212Z,1016.95
2018-02-26T08:11:04.234Z,1016.95
2018-02-26T08:11:57.249Z,1016.97
2018-02-26T08:12:57.143Z,1016.96
2018-02-26T08:13:57.126Z,1016.93
2018-02-26T08:14:57.195Z,1016.96
2018-02-26T08:15:57.105Z,1016.97
2018-02-26T08:16:57.053Z,1016.94
2018-02-26T08:17:57.051Z,1016.96
2018-02-26T08:18:57.091Z,1016.93
2018-02-26T08:19:57.573Z,1016.99
2018-02-26T08:20:58.231Z,1016.97
2018-02-26T08:21:56.951Z,1016.93
2018-02-26T08:22:56.954Z,1016.95
2018-02-26T08:23:56.926Z,1016.96
2018-02-26T08:24:57.168Z,1016.94
2018-02-26T08:25:56.877Z,1017.01
2018-02-26T08:26:56.854Z,1016.96
2018-02-26T08:27:57.125Z,1016.96
2018-02-26T08:28:56.864Z,1016.93
2018-02-26T08:29:56.795Z,1016.95
2018-02-26T08:30:56.798Z,1016.95
2018-02-26T08:31:56.755Z,1016.98
2018-02-26T08:32:56.811Z,1016.99
2018-02-26T08:33:56.787Z,1016.96
2018-02-26T08:34:58.324Z,1016.98
2018-02-26T08:35:56.736Z,1017.00
2018-02-26T08:36:56.690Z,1016.95
2018-02-26T08:37:56.638Z,1016.92
2018-02-26T08:38:56.661Z,1016.90
2018-02-26T08:39:56.572Z,1016.93
2018-02-26T08:40:56.558Z,1016.94
2018-02-26T08:41:56.526Z,1016.91
2018-02-26T08:42:56.543Z,1016.92
2018-02-26T08:43:56.529Z,1016.92
2018-02-26T08:44:56.544Z,1016.88
2018-02-26T08:45:56.454Z,1016.91
2018-02-26T08:46:56.434Z,1016.89
2018-02-26T08:47:56.422Z,1016.90
2018-02-26T08:48:56.389Z,1016.95
2018-02-26T08:49:56.372Z,1016.87
2018-02-26T08:50:56.373Z,1016.83
2018-02-26T08:51:56.330Z,1016.87
2018-02-26T08:52:56.295Z,1016.89
2018-02-26T08:53:56.316Z,1016.91
2018-02-26T08:54:56.469Z,1016.95
2018-02-26T08:55:56.237Z,1016.92
2018-02-26T08:56:57.525Z,1016.93
2018-02-26T08:57:56.226Z,1016.83
2018-02-26T08:58:56.217Z,1016.88
2018-02-26T08:59:56.204Z,1016.91
2018-02-26T09:00:56.869Z,1016.91
2018-02-26T09:01:56.112Z,1016.85
2018-02-26T09:02:56.084Z,1016.86
2018-02-26T09:03:56.067Z,1016.84
2018-02-26T09:04:56.046Z,1016.88
2018-02-26T09:05:56.081Z,1016.85
2018-02-26T09:06:56.699Z,1016.82
2018-02-26T09:07:56.608Z,1016.85
2018-02-26T09:08:56.667Z,1016.84
2018-02-26T09:09:56.544Z,1016.85
2018-02-26T09:10:56.577Z,1016.84
2018-02-26T09:11:56.982Z,1016.81
2018-02-26T09:12:56.589Z,1016.84
2018-02-26T09:13:56.030Z,1016.83
2018-02-26T09:14:56.569Z,1016.82
2018-02-26T09:15:55.867Z,1016.85
2018-02-26T09:16:55.792Z,1016.80
2018-02-26T09:17:55.805Z,1016.81
2018-02-26T09:18:55.755Z,1016.82
2018-02-26T09:19:55.742Z,1016.79
2018-02-26T09:20:55.716Z,1016.79
2018-02-26T09:21:55.699Z,1016.85
2018-02-26T09:22:55.715Z,1016.84
2018-02-26T09:23:55.681Z,1016.80
2018-02-26T09:24:55.695Z,1016.75
2018-02-26T09:25:55.611Z,1016.77
2018-02-26T09:26:55.601Z,1016.76
2018-02-26T09:27:55.611Z,1016.76
2018-02-26T09:28:55.546Z,1016.74
2018-02-26T09:29:55.542Z,1016.73
2018-02-26T09:30:55.526Z,1016.71
2018-02-26T09:31:55.495Z,1016.74
2018-02-26T09:32:55.491Z,1016.72
2018-02-26T09:33:55.464Z,1016.73
2018-02-26T09:34:55.734Z,1016.77
2018-02-26T09:35:55.417Z,1016.71
2018-02-26T09:36:55.389Z,1016.75
2018-02-26T09:37:55.375Z,1016.76
2018-02-26T09:38:55.397Z,1016.69
2018-02-26T09:39:55.370Z,1016.71
2018-02-26T09:40:55.317Z,1016.66
2018-02-26T09:41:55.297Z,1016.68
2018-02-26T09:42:55.292Z,1016.71
2018-02-26T09:43:55.290Z,1016.72
2018-02-26T12:07:26.431Z,1016.03
2018-02-26T12:08:27.904Z,1015.77
2018-02-26T12:09:39.873Z,1015.87
2018-02-26T12:10:27.851Z,1015.72
2018-02-26T12:11:30.050Z,1015.86
2018-02-26T12:14:01.936Z,1015.66
2018-02-26T12:15:01.112Z,1015.67
2018-02-26T12:16:01.143Z,1015.64
2018-02-26T12:17:01.261Z,1015.65
2018-02-26T12:18:02.530Z,1015.63
2018-02-26T12:19:06.756Z,1015.87
2018-02-26T12:20:01.255Z,1015.86
2018-02-26T12:21:02.539Z,1015.83
2018-02-26T12:22:02.306Z,1015.61
2018-02-26T12:23:01.072Z,1015.77
2018-02-26T12:24:00.964Z,1015.56
2018-02-26T12:25:00.993Z,1015.57
2018-02-26T12:26:00.981Z,1015.53
2018-02-26T12:27:01.350Z,1015.52
2018-02-26T12:28:00.935Z,1015.45
2018-02-26T12:29:00.937Z,1015.46
2018-02-26T12:30:00.874Z,1015.51
2018-02-26T12:31:00.854Z,1015.52
2018-02-26T12:32:00.985Z,1015.50
2018-02-26T12:33:00.820Z,1015.49
2018-02-26T12:34:00.868Z,1015.54
2018-02-26T12:35:00.797Z,1015.48
2018-02-26T12:36:00.785Z,1015.46
2018-02-26T12:37:00.754Z,1015.46
2018-02-26T12:38:00.743Z,1015.47
2018-02-26T12:39:15.455Z,1015.54
2018-02-26T12:49:46.882Z,1015.38
2018-02-26T12:50:19.779Z,1015.47
2018-02-26T12:51:20.791Z,1015.38
2018-02-26T12:52:19.741Z,1015.37
2018-02-26T12:53:20.287Z,1015.37
2018-02-26T12:54:19.670Z,1015.32
2018-02-26T12:55:19.685Z,1015.34
2018-02-26T12:56:19.637Z,1015.34
2018-02-26T12:57:19.734Z,1015.27
2018-02-26T12:58:19.590Z,1015.25
2018-02-26T12:59:19.824Z,1015.28
2018-02-26T13:00:19.703Z,1015.33
2018-02-26T13:01:19.840Z,1015.32
2018-02-26T13:02:19.548Z,1015.31
2018-02-26T13:03:19.512Z,1015.24
2018-02-26T13:04:19.550Z,1015.21
2018-02-26T13:05:19.465Z,1015.23
2018-02-26T13:06:19.451Z,1015.19
2018-02-26T13:07:19.438Z,1015.16
2018-02-26T13:08:19.411Z,1015.14
2018-02-26T13:09:19.417Z,1015.11
2018-02-26T13:10:19.387Z,1015.07
2018-02-26T13:11:21.399Z,1015.10
2018-02-26T13:12:19.341Z,1015.10
2018-02-26T13:13:19.365Z,1015.09
2018-02-26T13:14:20.726Z,1015.03
2018-02-26T13:15:19.310Z,1014.99
2018-02-26T13:16:19.293Z,1015.03
2018-02-26T13:17:19.275Z,1015.05
2018-02-26T13:18:19.242Z,1015.05
2018-02-26T13:19:19.212Z,1015.05
2018-02-26T13:20:19.192Z,1015.01
2018-02-26T13:21:19.236Z,1015.01
2018-02-26T13:22:19.221Z,1014.98
2018-02-26T13:23:19.140Z,1015.05
2018-02-26T13:24:19.121Z,1014.98
2018-02-26T13:25:19.822Z,1014.92
2018-02-26T13:26:19.080Z,1014.86
2018-02-26T13:27:19.083Z,1014.85
2018-02-26T13:28:19.058Z,1014.83
2018-02-26T13:29:19.035Z,1014.85
2018-02-26T13:30:19.018Z,1014.88
2018-02-26T13:31:19.014Z,1014.85
2018-02-26T13:32:19.076Z,1014.84
2018-02-26T13:33:18.958Z,1014.91
2018-02-26T13:34:19.052Z,1014.81
2018-02-26T13:35:19.842Z,1014.84
2018-02-26T13:40:21.637Z,1014.89
2018-02-26T13:41:22.809Z,1014.87
2018-02-26T13:42:21.511Z,1014.81
2018-02-26T13:43:21.506Z,1014.86
2018-02-26T13:44:21.467Z,1014.86
2018-02-26T13:45:21.554Z,1014.84
2018-02-26T13:46:21.575Z,1014.80
2018-02-26T13:47:21.406Z,1014.88
2018-02-26T13:48:21.392Z,1014.92
2018-02-26T13:49:21.410Z,1014.86
2018-02-26T14:22:34.903Z,1014.58
2018-02-26T14:23:27.962Z,1014.55
2018-02-26T14:24:27.348Z,1014.49
2018-02-26T14:25:29.983Z,1014.49
2018-02-26T14:26:38.976Z,1014.45
2018-02-26T14:27:33.067Z,1014.41
2018-02-26T14:28:27.966Z,1014.42
2018-02-26T14:36:44.125Z,1014.66
2018-02-26T14:37:38.070Z,1014.53
2018-02-26T14:38:37.750Z,1014.53
2018-02-26T14:39:37.756Z,1014.48
2018-02-26T14:40:37.759Z,1014.32
2018-02-26T14:41:37.786Z,1014.30
2018-02-26T14:42:37.728Z,1014.26
2018-02-26T14:43:37.737Z,1014.31
2018-02-26T14:44:37.763Z,1014.26
2018-02-26T14:45:37.684Z,1014.27
2018-02-26T14:46:37.722Z,1014.28
2018-02-26T14:47:37.825Z,1014.29
2018-02-26T14:48:37.721Z,1014.33
2018-02-26T14:49:38.586Z,1014.28
2018-02-26T14:50:37.850Z,1014.29
2018-02-26T14:51:37.955Z,1014.27
2018-02-26T14:52:37.584Z,1014.23
2018-02-26T14:53:37.506Z,1014.28
2018-02-26T14:54:37.480Z,1014.25
2018-02-26T14:55:37.524Z,1014.23
2018-02-26T14:56:37.433Z,1014.22
2018-02-26T14:57:37.559Z,1014.20
2018-02-26T14:58:37.426Z,1014.24
2018-02-26T14:59:37.381Z,1014.18
2018-02-26T15:00:37.376Z,1014.21
2018-02-26T15:01:37.368Z,1014.19
2018-02-26T15:02:37.402Z,1014.19
2018-02-26T15:03:37.327Z,1014.20
2018-02-26T15:04:37.381Z,1014.18
2018-02-26T15:05:37.285Z,1014.16
2018-02-26T15:06:38.649Z,1014.17
2018-02-26T15:28:38.656Z,1013.98
2018-02-26T15:28:51.054Z,1013.96
2018-02-26T15:29:39.048Z,1013.89
2018-02-26T15:30:39.038Z,1013.93
2018-02-26T15:34:33.301Z,1013.87
2018-02-26T15:35:32.332Z,1013.89
2018-02-26T15:36:32.398Z,1013.87
2018-02-26T15:37:33.052Z,1013.89
2018-02-26T15:58:43.283Z,1013.67
2018-02-26T15:59:43.934Z,1013.58
2018-02-26T16:00:45.994Z,1013.63
2018-02-26T16:01:43.322Z,1013.63
2018-02-26T16:02:43.345Z,1013.67
2018-02-26T16:03:43.188Z,1013.61
2018-02-26T16:27:57.068Z,1013.47
2018-02-26T16:28:57.044Z,1013.41
2018-02-26T16:29:57.010Z,1013.40
2018-02-26T16:30:56.996Z,1013.41
2018-02-26T16:31:57.008Z,1013.36
2018-02-26T16:32:56.973Z,1013.43
2018-02-26T16:33:56.928Z,1013.40
2018-02-26T16:34:56.921Z,1013.37
2018-02-26T16:35:56.932Z,1013.39
2018-02-26T16:36:56.897Z,1013.30
2018-02-26T16:37:56.891Z,1013.36
2018-02-26T16:38:56.852Z,1013.30
2018-02-26T16:39:56.829Z,1013.28
2018-02-26T16:40:56.809Z,1013.27
2018-02-26T16:41:56.819Z,1013.27
2018-02-26T16:42:56.790Z,1013.31
2018-02-26T16:43:56.741Z,1013.32
2018-02-26T16:44:56.728Z,1013.31
2018-02-26T16:45:56.689Z,1013.30
2018-02-26T16:46:56.698Z,1013.33
2018-02-26T16:47:56.665Z,1013.28
2018-02-26T16:48:56.631Z,1013.31
2018-02-26T16:49:56.621Z,1013.26
2018-02-26T16:50:56.594Z,1013.28
2018-02-26T16:51:56.575Z,1013.28
2018-02-26T16:52:56.603Z,1013.27
2018-02-26T16:53:56.529Z,1013.27
2018-02-26T16:54:56.505Z,1013.24
2018-02-26T16:55:56.499Z,1013.25
2018-02-26T16:56:56.495Z,1013.25
2018-02-26T16:57:56.450Z,1013.23
2018-02-26T16:58:56.427Z,1013.22
2018-02-26T16:59:56.413Z,1013.24
2018-02-26T17:00:56.540Z,1013.21
2018-02-26T17:01:56.376Z,1013.21
2018-02-26T17:02:56.348Z,1013.21
2018-02-26T17:03:56.336Z,1013.18
2018-02-26T17:04:56.310Z,1013.17
2018-02-26T17:05:56.294Z,1013.18
2018-02-26T17:06:56.272Z,1013.22
2018-02-26T17:07:56.244Z,1013.22
2018-02-26T17:08:56.238Z,1013.25
2018-02-26T17:09:56.210Z,1013.25
2018-02-26T17:10:56.224Z,1013.21
2018-02-26T17:11:56.231Z,1013.24
2018-02-26T17:12:56.148Z,1013.26
2018-02-26T17:13:56.135Z,1013.26
2018-02-26T17:14:56.093Z,1013.24
2018-02-26T17:15:56.091Z,1013.24
2018-02-26T17:19:53.467Z,1013.26
2018-02-26T17:20:53.430Z,1013.23
2018-02-26T17:21:53.405Z,1013.18
2018-02-26T17:22:53.369Z,1013.16
2018-02-26T17:23:53.415Z,1013.16
2018-02-26T17:24:53.344Z,1013.13
2018-02-26T17:25:53.371Z,1013.14
2018-02-26T17:26:53.298Z,1013.15
2018-02-26T17:27:53.276Z,1013.07
2018-02-26T17:28:53.259Z,1013.08
2018-02-26T17:29:53.264Z,1013.07
2018-02-26T17:30:53.206Z,1013.04
2018-02-26T17:31:53.201Z,1013.05
2018-02-26T17:32:53.166Z,1013.01
2018-02-26T17:33:53.170Z,1013.03
2018-02-26T17:34:53.203Z,1012.98
2018-02-26T17:35:53.751Z,1012.98
2018-02-26T17:36:53.086Z,1012.93
2018-02-26T17:37:53.074Z,1012.91
2018-02-26T17:38:53.041Z,1012.94
2018-02-26T17:39:53.021Z,1012.97
2018-02-26T17:40:53.060Z,1012.96
2018-02-26T17:41:52.994Z,1012.95
2018-02-26T17:42:52.968Z,1012.93
2018-02-26T17:43:52.940Z,1012.96
2018-02-26T17:44:52.926Z,1012.93
2018-02-26T17:45:52.908Z,1012.94
2018-02-26T17:46:52.880Z,1012.89
2018-02-26T17:47:52.857Z,1012.90
2018-02-26T17:48:52.847Z,1012.84
2018-02-26T23:11:58.490Z,1012.47
2018-02-26T23:12:58.502Z,1012.47
2018-02-26T23:13:58.407Z,1012.43
2018-02-26T23:14:58.388Z,1012.41
2018-02-26T23:15:58.377Z,1012.40
2018-02-26T23:16:58.352Z,1012.37
2018-02-26T23:17:58.334Z,1012.42
2018-02-26T23:18:58.340Z,1012.41
2018-02-26T23:19:58.344Z,1012.41
2018-02-26T23:20:58.251Z,1012.37
2018-02-26T23:21:58.239Z,1012.36
2018-02-26T23:22:58.209Z,1012.40
2018-02-26T23:23:58.205Z,1012.37
2018-02-26T23:24:58.175Z,1012.39
2018-02-26T23:25:58.205Z,1012.38
2018-02-26T23:26:58.118Z,1012.38
2018-02-26T23:27:58.103Z,1012.37
2018-02-26T23:28:58.086Z,1012.35
2018-02-26T23:29:58.065Z,1012.32
2018-02-26T23:30:58.039Z,1012.35
2018-02-26T23:31:58.025Z,1012.35
2018-02-26T23:32:57.987Z,1012.35
2018-02-26T23:33:57.971Z,1012.29
2018-02-26T23:34:57.946Z,1012.31
2018-02-26T23:35:57.934Z,1012.28
2018-02-26T23:36:57.937Z,1012.31
2018-02-26T23:37:57.892Z,1012.34
2018-02-26T23:38:57.872Z,1012.33
2018-02-26T23:39:57.846Z,1012.29
2018-02-26T23:40:57.842Z,1012.28
2018-02-26T23:41:57.797Z,1012.26
2018-02-26T23:42:57.807Z,1012.28
2018-02-26T23:43:57.761Z,1012.25
2018-02-26T23:44:57.732Z,1012.24
2018-02-26T23:45:57.715Z,1012.25
2018-02-26T23:46:57.687Z,1012.22
2018-02-26T23:47:57.659Z,1012.23
2018-02-26T23:48:57.638Z,1012.22
2018-02-26T23:49:57.612Z,1012.21
2018-02-26T23:50:57.596Z,1012.21
2018-02-26T23:51:57.624Z,1012.19
2018-02-26T23:52:57.553Z,1012.16
2018-02-26T23:53:57.542Z,1012.18
2018-02-26T23:54:57.506Z,1012.18
2018-02-26T23:55:57.491Z,1012.17
2018-02-26T23:56:57.470Z,1012.16
2018-02-26T23:57:57.498Z,1012.16
2018-02-26T23:58:57.415Z,1012.10
2018-02-26T23:59:57.394Z,1012.15
